Querino, Arizona
Current Conditions -  °F | °C
As of 2:53 PM on Friday 31 Oct 2014 (Local Time) from KRQE Reporting Station
Clear Clear  
Wind Chill: 73°   Ceiling: Unl
Heat Index: 73°   Visibility: 10mi
Dew Point: 34°   Wind: 14mph
Humidity: 24%   Direction: 230°SW
Pressure: 30.17"   Gusts: 21mph
Location:  35.2918°N, 109.157°W
Report Text: KRQE 312053Z AUTO 23012G18KT 10SM CLR 23/01 A3017 RMK AO2 SLP139 T02280011 56034 TSNO
Loading
Personal Weather Stations






























Interactive Weather Map
Tropical Storm Tracking
New forecast layout! Learn more

10-Day Weather Forecast

Advertisements
Track Severe Weather on mobile